Sunday, January 21, 2018, 4:55 AM GMT
Back to Local

CWEW, L'Assomption

Location: , , Canada Lat: 45.817
Local Time: 4:55 AM GMT ( 4:55 GMT) Lon: -73.433
Time Zone: GMT Elev: 68 ft

Show me the last for .
Show Decoded

2018-01-21 04:00 METAR CWEW 210400Z AUTO 33008KT 01/M07 RMK AO1 SOG 04 2024 SLP139 T00121067 =
2018-01-21 03:00 METAR CWEW 210300Z AUTO 31009KT 02/M05 RMK AO1 SOG 04 1025 SLP131 T00201050 =
2018-01-21 02:00 METAR CWEW 210200Z AUTO 28006KT 03/M04 RMK AO1 SOG 04 1031 SLP123 T00281041 =
2018-01-21 01:00 METAR CWEW 210100Z AUTO 27008KT 03/M04 RMK AO1 SOG 04 1040 SLP115 T00311037 =
2018-01-21 00:00 METAR CWEW 210000Z AUTO 28010G16KT 04/M04 RMK AO1 SOG 04 1050 PK WND 28021/2345
                 SLP106 T00371035 =
2018-01-20 23:00 METAR CWEW 202300Z AUTO 28008KT 04/M02 RMK AO1 SOG 03 3050 PK WND 27017/2211
                 SLP092 T00421016 =
2018-01-20 22:00 METAR CWEW 202200Z AUTO 26010G18KT 04/M01 RMK AO1 SOG 04 3046 PK WND 25022/2122
                 SLP075 T00441011 =
2018-01-20 21:00 METAR CWEW 202100Z AUTO 25013G21KT 04/M01 RMK AO1 SOG 04 3030 PK WND 24024/2010
                 SLP056 T00421013 =
2018-01-20 20:00 METAR CWEW 202000Z AUTO 24014G23KT 04/M02 RMK AO1 SOG 04 3023 PK WND 24025/1947
                 SLP042 T00431016 =
2018-01-20 19:00 METAR CWEW 201900Z AUTO 24012G22KT 05/M02 RMK AO1 SOG 06 3010 PK WND 25026/1806
                 SLP029 T00461020 =
2018-01-20 18:00 METAR CWEW 201800Z AUTO 25015G23KT 04/M02 RMK AO1 SOG 07 2014 PK WND 25026/1719
                 SLP026 T00431023 =
2018-01-20 17:00 METAR CWEW 201700Z AUTO 25016G28KT 04/M02 RMK AO1 SOG 07 1011 PK WND 24028/1657
                 SLP019 T00391023 =
2018-01-20 16:00 METAR CWEW 201600Z AUTO 24017G25KT 04/M02 RMK AO1 SOG 08 1022 PK WND 24026/1538
                 SLP019 T00361024 =
2018-01-20 15:00 METAR CWEW 201500Z AUTO 24015G23KT 03/M02 RMK AO1 SOG 09 1022 PK WND 24027/1446
                 SLP012 T00341024 =
2018-01-20 14:00 METAR CWEW 201400Z AUTO 24014G23KT 03/M03 RMK AO1 SOG 09 3024 PK WND 23026/1317
                 SLP008 T00331026 =
2018-01-20 13:00 METAR CWEW 201300Z AUTO 24014G20KT 03/M03 RMK AO1 SOG 09 1023 PK WND 21028/1216
                 SLP997 T00321027 =
2018-01-20 12:00 METAR CWEW 201200Z AUTO 23018G28KT 03/M03 RMK AO1 SOG 09 3006 PK WND 23028/1157
                 SLP990 T00341029 =
2018-01-20 11:00 METAR CWEW 201100Z AUTO 23016G25KT 03/M03 RMK AO1 SOG 09 5016 PK WND 22025/1057
                 SLP984 T00331031 =
2018-01-20 10:00 METAR CWEW 201000Z AUTO 20008KT 01/M04 RMK AO1 SOG 10 6041 SLP974 T00111035 =
2018-01-20 09:00 METAR CWEW 200900Z AUTO 18008KT M01/M04 RMK AO1 SOG 10 8040 SLP984 T10071042 =
2018-01-20 08:00 METAR CWEW 200800Z AUTO 19008KT M01/M05 RMK AO1 SOG 10 8033 SLP000 T10091046 =
2018-01-20 07:00 METAR CWEW 200700Z AUTO 19009KT M01/M05 RMK AO1 SOG 10 6032 SLP015 T10101047 =
2018-01-20 06:00 METAR CWEW 200600Z AUTO 19009KT M01/M05 RMK AO1 SOG 10 6034 SLP024 T10111047 =
2018-01-20 05:00 METAR CWEW 200500Z AUTO 19010G16KT M01/M05 RMK AO1 SOG 10 6041 SLP033 T10091046
                 =

Support USWX by starting your Amazon purchase here.